createdAt,value
2017-05-01T08:16:12.160Z,35
2017-05-01T08:18:35.640Z,35
2017-05-01T08:20:59.093Z,40
2017-05-01T08:23:22.575Z,45
2017-05-01T08:25:46.053Z,40
2017-05-01T08:28:14.909Z,35
2017-05-01T08:30:37.471Z,20
2017-05-01T08:33:00.967Z,20
2017-05-01T08:37:35.406Z,20
2017-05-01T08:40:05.256Z,20
2017-05-01T08:42:29.342Z,20
2017-05-01T08:44:52.863Z,20
2017-05-01T08:47:16.341Z,20
2017-05-01T08:49:39.787Z,30
2017-05-01T08:51:54.856Z,40
2017-05-01T08:54:18.316Z,40
2017-05-01T08:56:41.785Z,35
2017-05-01T09:03:06.787Z,25
2017-05-01T09:05:35.683Z,20
2017-05-01T09:07:59.077Z,25
2017-05-01T09:10:22.597Z,30
2017-05-01T09:12:46.023Z,25
2017-05-01T09:15:09.530Z,20
2017-05-01T09:17:32.959Z,20
2017-05-01T09:22:06.637Z,25
2017-05-01T09:24:30.177Z,25
2017-05-01T09:29:03.319Z,25
2017-05-01T09:33:36.504Z,30
2017-05-01T09:35:59.945Z,30
2017-05-01T09:38:23.416Z,30
2017-05-01T09:40:46.897Z,30
2017-05-01T09:43:10.372Z,30
2017-05-01T09:47:35.730Z,25
2017-05-01T09:49:59.252Z,25
2017-05-01T09:52:22.746Z,25
2017-05-01T09:54:46.182Z,20
2017-05-01T09:57:09.671Z,20
2017-05-01T09:59:33.115Z,30
2017-05-01T10:01:56.591Z,30
2017-05-01T10:04:20.058Z,30
2017-05-01T10:06:43.551Z,30
2017-05-01T10:09:06.996Z,35
2017-05-01T10:11:30.457Z,30
2017-05-01T10:15:29.773Z,30
2017-05-01T10:17:53.250Z,35
2017-05-01T10:20:16.721Z,35
2017-05-01T10:22:40.186Z,40
2017-05-01T10:25:03.660Z,40
2017-05-01T10:27:27.106Z,45
2017-05-01T10:29:50.599Z,45
2017-05-01T10:32:14.174Z,45
2017-05-01T10:34:37.736Z,45
2017-05-01T10:37:01.327Z,45
2017-05-01T10:39:24.896Z,40
2017-05-01T10:43:50.368Z,35
2017-05-01T10:46:13.915Z,30
2017-05-01T10:48:37.465Z,35
2017-05-01T10:51:01.040Z,45
2017-05-01T10:53:24.603Z,50
2017-05-01T10:55:39.767Z,45
2017-05-01T11:00:04.567Z,40
2017-05-01T11:02:28.046Z,40
2017-05-01T11:04:43.201Z,40
2017-05-01T11:07:06.791Z,40
2017-05-01T11:09:30.360Z,50
2017-05-01T11:11:53.923Z,45
2017-05-01T11:14:17.508Z,50
2017-05-01T11:16:41.072Z,55
2017-05-01T11:19:04.644Z,60
2017-05-01T11:21:28.197Z,55
2017-05-01T11:23:51.784Z,55
2017-05-01T11:28:16.566Z,75
2017-05-01T11:34:43.749Z,90
2017-05-01T11:37:07.369Z,95
2017-05-01T11:39:30.931Z,90
2017-05-01T11:41:54.520Z,80
2017-05-01T11:44:18.196Z,65
2017-05-01T11:46:41.881Z,60
2017-05-01T11:48:57.137Z,65
2017-05-01T11:51:20.839Z,70
2017-05-01T11:53:44.492Z,65
2017-05-01T11:56:08.189Z,60
2017-05-01T11:58:31.830Z,70
2017-05-01T12:00:47.091Z,70
2017-05-01T12:05:12.702Z,90
2017-05-01T12:07:36.443Z,85
2017-05-01T12:10:00.107Z,90
2017-05-01T12:12:23.788Z,85
2017-05-01T12:14:47.445Z,85
2017-05-01T12:17:11.113Z,85
2017-05-01T12:19:34.745Z,90
2017-05-01T12:21:58.471Z,90
2017-05-01T12:24:22.148Z,75
2017-05-01T12:26:45.809Z,70
2017-05-01T12:29:09.474Z,60
2017-05-01T12:31:33.159Z,55
2017-05-01T12:33:56.853Z,55
2017-05-01T12:36:20.494Z,60
2017-05-01T12:40:45.410Z,65
2017-05-01T12:43:09.092Z,65
2017-05-01T12:45:32.755Z,60
2017-05-01T12:47:56.421Z,60
2017-05-01T12:50:11.695Z,65
2017-05-01T12:52:35.361Z,60
2017-05-01T12:54:59.043Z,55
2017-05-01T12:57:22.712Z,50
2017-05-01T12:59:46.390Z,45
2017-05-01T13:02:10.048Z,50
2017-05-01T13:04:33.723Z,65
2017-05-01T13:06:57.286Z,60
2017-05-01T13:09:20.985Z,50
2017-05-01T13:11:44.670Z,50
2017-05-01T13:14:08.314Z,55
2017-05-01T13:16:23.593Z,65
2017-05-01T13:18:47.281Z,80
2017-05-01T13:21:10.950Z,85
2017-05-01T13:23:26.245Z,90
2017-05-01T13:25:49.893Z,80
2017-05-01T13:28:05.171Z,75
2017-05-01T13:30:28.843Z,80
2017-05-01T13:35:02.786Z,90
2017-05-01T13:37:26.544Z,90
2017-05-01T13:39:50.210Z,85
2017-05-01T13:42:13.906Z,80
2017-05-01T13:44:37.682Z,70
2017-05-01T13:46:52.943Z,60
2017-05-01T13:49:16.766Z,55
2017-05-01T13:51:23.675Z,55
2017-05-01T13:53:47.513Z,50
2017-05-01T13:59:39.810Z,40
2017-05-01T14:02:03.531Z,40
2017-05-01T14:04:27.284Z,40
2017-05-01T14:06:42.547Z,35
2017-05-01T14:09:06.229Z,30
2017-05-01T14:11:29.909Z,25
2017-05-01T14:13:53.604Z,20
2017-05-01T14:16:17.257Z,25
2017-05-01T14:18:40.911Z,30
2017-05-01T14:21:04.604Z,30
2017-05-01T14:23:28.243Z,35
2017-05-01T14:25:51.824Z,35
2017-05-01T14:28:15.402Z,40
2017-05-01T14:30:38.951Z,40
2017-05-01T14:32:54.046Z,40
2017-05-01T14:35:17.604Z,35
2017-05-01T14:37:41.086Z,35
2017-05-01T14:39:47.819Z,35
2017-05-01T14:42:11.318Z,35
2017-05-01T14:44:26.479Z,35
2017-05-01T14:46:50.055Z,30
2017-05-01T14:48:56.775Z,30
2017-05-01T14:51:20.364Z,30
2017-05-01T14:53:43.971Z,30
2017-05-01T14:56:07.571Z,30
2017-05-01T14:58:31.169Z,30
2017-05-01T15:00:54.773Z,30
2017-05-01T15:03:18.377Z,25
2017-05-01T15:05:41.964Z,25
2017-05-01T15:08:05.569Z,25
2017-05-01T15:10:29.160Z,25
2017-05-01T15:12:52.742Z,20
2017-05-01T15:15:16.327Z,20
2017-05-01T15:17:39.893Z,25
2017-05-01T15:19:55.057Z,25
2017-05-01T15:22:18.636Z,20
2017-05-01T15:24:42.208Z,20
2017-05-01T15:27:05.806Z,15
2017-05-01T15:31:39.139Z,10
2017-05-01T15:36:04.000Z,5
2017-05-01T15:38:27.567Z,10
2017-05-01T15:40:51.112Z,15
2017-05-01T15:43:14.678Z,20
2017-05-01T15:47:40.028Z,25
2017-05-01T15:55:25.401Z,20
2017-05-01T15:57:48.975Z,20
2017-05-01T16:00:12.448Z,20
2017-05-01T16:04:37.297Z,20
2017-05-01T16:07:00.810Z,25
2017-05-01T16:11:25.568Z,25
2017-05-01T16:13:40.686Z,25
2017-05-01T16:16:04.150Z,25
2017-05-01T16:18:27.691Z,25
2017-05-01T16:20:42.831Z,25
2017-05-01T16:22:57.859Z,20
2017-05-01T16:25:21.374Z,20
2017-05-01T16:27:44.866Z,20
2017-05-01T16:30:08.378Z,20
2017-05-01T16:32:15.088Z,20
2017-05-01T16:36:48.359Z,20
2017-05-01T16:39:11.902Z,20
2017-05-01T16:41:35.453Z,20
2017-05-01T16:43:59.024Z,20
2017-05-01T16:46:22.529Z,20
2017-05-01T16:48:46.048Z,15
2017-05-01T16:51:09.576Z,15
2017-05-01T16:53:33.096Z,15
2017-05-01T16:55:56.616Z,15
2017-05-01T16:59:47.565Z,15
2017-05-01T17:02:11.119Z,15
2017-05-01T17:04:26.215Z,15
2017-05-01T17:06:41.310Z,15
2017-05-01T17:09:04.845Z,10
2017-05-01T17:11:28.356Z,10
2017-05-01T17:13:51.814Z,10
2017-05-01T17:16:15.345Z,10
2017-05-01T17:20:40.587Z,10
2017-05-01T17:23:04.118Z,10
2017-05-01T17:25:27.605Z,10
2017-05-01T17:27:51.093Z,10
2017-05-01T17:30:14.592Z,5
2017-05-01T17:32:38.099Z,5
2017-05-01T17:35:01.634Z,5
2017-05-01T17:39:00.957Z,5
2017-05-01T17:41:24.491Z,5
2017-05-01T17:43:39.614Z,5
2017-05-01T17:46:03.125Z,5
2017-05-01T17:48:26.653Z,5
2017-05-01T17:52:25.924Z,5
2017-05-01T17:54:49.428Z,5
2017-05-01T17:57:12.917Z,5
2017-05-01T17:59:36.405Z,5
2017-05-01T18:01:59.903Z,0
2017-05-01T18:04:23.399Z,0
2017-05-01T18:06:46.868Z,0
2017-05-01T18:09:10.359Z,0
2017-05-01T18:11:33.855Z,0
2017-05-01T18:13:48.961Z,0
2017-05-01T18:16:12.411Z,0
2017-05-01T18:18:27.520Z,0
2017-05-01T18:20:50.932Z,0
2017-05-01T18:23:14.450Z,0
2017-05-01T18:25:37.947Z,0
2017-05-01T18:28:01.398Z,0
2017-05-01T18:30:24.881Z,0
2017-05-01T18:32:48.344Z,0
2017-05-01T18:35:11.830Z,0
2017-05-01T18:37:35.301Z,0
2017-05-01T18:42:00.012Z,0
2017-05-01T18:44:15.205Z,0
2017-05-01T18:46:30.345Z,0
2017-05-01T18:48:53.922Z,0
2017-05-01T18:51:17.509Z,0
2017-05-01T18:53:41.089Z,0
2017-05-01T18:56:04.644Z,0
2017-05-01T18:58:28.232Z,0
2017-05-01T19:02:53.007Z,0
2017-05-01T19:05:16.593Z,0
2017-05-01T19:07:31.677Z,0
2017-05-01T19:09:55.245Z,0
2017-05-01T19:12:18.801Z,0
2017-05-01T19:14:33.863Z,0
2017-05-01T19:16:40.561Z,0
2017-05-01T19:19:04.116Z,0
2017-05-01T19:21:27.574Z,0
2017-05-01T19:23:51.117Z,0
2017-05-01T19:28:24.350Z,0
2017-05-01T19:30:47.856Z,0
2017-05-01T19:33:11.403Z,0
2017-05-01T19:35:34.987Z,0
2017-05-01T19:39:59.765Z,0
2017-05-01T19:42:23.287Z,0
2017-05-01T19:44:46.706Z,0
2017-05-01T19:47:10.167Z,0
2017-05-01T19:49:33.670Z,0
2017-05-01T19:51:57.251Z,0
2017-05-01T19:54:20.784Z,0
2017-05-01T19:56:44.253Z,0
2017-05-01T19:59:07.756Z,0
2017-05-01T20:01:31.192Z,0
2017-05-01T20:03:46.281Z,0
2017-05-01T20:06:09.754Z,0
2017-05-01T20:08:24.912Z,0
2017-05-01T20:10:48.493Z,0
2017-05-01T20:13:12.074Z,0
2017-05-01T20:15:35.624Z,0
2017-05-01T20:17:59.196Z,0
2017-05-01T20:20:14.370Z,0
2017-05-01T20:22:37.936Z,0
2017-05-01T20:24:53.702Z,0
2017-05-01T20:27:18.167Z,0
2017-05-01T20:29:41.674Z,0
2017-05-01T20:32:05.130Z,0
2017-05-01T20:34:20.216Z,0
2017-05-01T20:36:43.681Z,0
2017-05-01T20:39:07.143Z,0
2017-05-01T20:41:30.607Z,0
2017-05-01T20:43:45.705Z,0
2017-05-01T20:46:09.136Z,0
2017-05-01T20:50:33.804Z,0
2017-05-01T20:52:57.338Z,0
2017-05-01T20:55:21.393Z,0
2017-05-01T20:57:52.685Z,0
2017-05-01T21:01:43.858Z,0
2017-05-01T21:04:08.391Z,0
2017-05-01T21:08:07.992Z,0
2017-05-01T21:10:47.487Z,0
2017-05-01T21:14:47.025Z,0
2017-05-01T21:18:46.050Z,0
2017-05-01T21:21:16.519Z,0
2017-05-01T21:23:42.037Z,0
2017-05-01T21:27:41.630Z,0
2017-05-01T21:31:41.215Z,0
2017-05-01T21:34:21.642Z,0
2017-05-01T21:36:45.114Z,0
2017-05-01T21:40:44.654Z,0
2017-05-01T21:43:01.751Z,0
2017-05-01T21:45:25.758Z,0
2017-05-01T21:49:25.323Z,0
2017-05-01T21:52:03.854Z,0
2017-05-01T21:58:04.571Z,0
2017-05-01T22:00:28.103Z,0
2017-05-01T22:02:51.563Z,0
2017-05-01T22:05:15.022Z,0
2017-05-01T22:07:38.487Z,0
2017-05-01T22:13:48.541Z,0
2017-05-01T22:16:11.943Z,0
2017-05-01T22:18:35.413Z,0
2017-05-01T22:23:00.063Z,0
2017-05-01T22:25:23.933Z,0
2017-05-01T22:29:57.058Z,0
2017-05-01T22:32:20.481Z,0
2017-05-01T22:34:43.788Z,0
2017-05-01T22:36:58.811Z,0
2017-05-01T22:39:22.261Z,0
2017-05-01T22:41:45.635Z,0
2017-05-01T22:44:09.109Z,0
2017-05-01T22:46:32.576Z,0
2017-05-01T22:48:56.050Z,0
2017-05-01T22:51:19.509Z,0
2017-05-01T22:53:34.571Z,0
2017-05-01T22:57:51.330Z,0
2017-05-01T23:00:14.776Z,0
2017-05-01T23:02:38.125Z,0
2017-05-01T23:05:01.614Z,0
2017-05-01T23:07:25.059Z,0
2017-05-01T23:09:48.562Z,0
2017-05-01T23:12:12.003Z,0
2017-05-01T23:14:35.380Z,0
2017-05-01T23:19:08.936Z,0
2017-05-01T23:21:23.957Z,0
2017-05-01T23:23:47.356Z,0
2017-05-01T23:26:10.798Z,0
2017-05-01T23:28:34.150Z,0
2017-05-01T23:30:57.515Z,0
2017-05-01T23:33:12.484Z,0
2017-05-01T23:35:35.858Z,0
2017-05-01T23:37:59.326Z,0
2017-05-01T23:40:22.682Z,0
2017-05-01T23:42:46.043Z,0
2017-05-01T23:45:09.401Z,0
2017-05-01T23:47:32.773Z,0
2017-05-01T23:49:56.143Z,0
2017-05-01T23:52:19.498Z,0
2017-05-01T23:54:42.882Z,0
2017-05-01T23:57:06.237Z,0
2017-05-01T23:59:12.817Z,0
